Time;durP1;ratioP1;P1;durP2;ratioP2;P2;SDS_P1;SDS_P2;PMS_P1;PMS_P2;Temp;Humidity;BMP_temperature;BMP_pressure;BME280_temperature;BME280_humidity;BME280_pressure;Samples;Min_cycle;Max_cycle;Signal;HPM_P1;HPM_P2
2022/03/19 00:00:13;;;;;;;3.03;1.57;;;;;;;4.11;45.99;101329.50;5097438;28;20655;-82
2022/03/19 00:02:39;;;;;;;4.80;2.30;;;;;;;4.12;45.17;101332.09;5115896;28;20178;-82
2022/03/19 00:05:05;;;;;;;3.70;1.67;;;;;;;4.25;44.76;101323.56;5097225;28;20286;-82
2022/03/19 00:07:32;;;;;;;4.80;1.83;;;;;;;4.07;45.13;101326.00;5097227;28;20176;-82
2022/03/19 00:09:58;;;;;;;5.53;2.10;;;;;;;4.13;44.60;101326.06;5097201;28;20668;-82
2022/03/19 00:12:23;;;;;;;4.13;1.37;;;;;;;4.15;45.05;101319.16;5114977;28;20274;-82
2022/03/19 00:14:49;;;;;;;3.33;1.73;;;;;;;4.03;44.70;101321.66;5115077;28;20172;-82
2022/03/19 00:17:14;;;;;;;5.13;1.67;;;;;;;4.12;44.55;101319.13;5115045;28;20175;-82
2022/03/19 00:19:40;;;;;;;2.53;1.53;;;;;;;4.13;44.53;101315.69;5115259;28;20175;-82
2022/03/19 00:22:06;;;;;;;8.00;2.00;;;;;;;4.03;45.38;101313.00;5115218;28;20207;-82
2022/03/19 00:24:34;;;;;;;2.03;1.23;;;;;;;4.03;45.37;101321.66;5096870;28;20191;-82
2022/03/19 00:26:59;;;;;;;4.20;2.07;;;;;;;4.03;45.02;101300.91;5114875;28;20221;-82
2022/03/19 00:29:25;;;;;;;6.30;1.80;;;;;;;3.91;45.15;101312.88;5115079;28;20200;-82
2022/03/19 00:31:50;;;;;;;2.20;1.57;;;;;;;4.05;45.03;101306.09;5096862;28;20180;-82
2022/03/19 00:34:15;;;;;;;1.43;1.00;;;;;;;4.13;44.84;101305.31;5114995;28;20172;-82
2022/03/19 00:36:42;;;;;;;4.03;1.53;;;;;;;4.02;45.13;101301.75;5114964;28;20182;-83
2022/03/19 00:39:08;;;;;;;2.73;1.33;;;;;;;3.99;45.09;101304.31;5114619;28;20255;-83
2022/03/19 00:41:33;;;;;;;2.40;1.60;;;;;;;4.03;45.05;101303.50;5114832;28;20227;-82
2022/03/19 00:43:59;;;;;;;3.43;1.47;;;;;;;4.16;44.83;101300.13;5114329;28;20179;-82
2022/03/19 00:46:24;;;;;;;3.93;2.10;;;;;;;4.21;45.11;101302.75;5114430;28;20195;-82
2022/03/19 00:48:49;;;;;;;3.00;1.50;;;;;;;4.21;44.79;101295.84;5114484;28;20172;-82
2022/03/19 00:51:15;;;;;;;4.23;2.40;;;;;;;4.24;45.40;101295.88;5096451;28;20171;-82
2022/03/19 00:53:40;;;;;;;3.50;1.60;;;;;;;4.28;44.82;101291.56;5096457;28;20190;-82
2022/03/19 00:56:06;;;;;;;5.30;2.10;;;;;;;4.24;44.90;101295.88;5114581;28;20582;-82
2022/03/19 00:58:31;;;;;;;2.07;1.43;;;;;;;4.24;45.47;101297.59;5096389;28;20172;-82
2022/03/19 01:00:57;;;;;;;5.93;2.07;;;;;;;4.26;45.45;101301.06;5114256;28;20176;-83
2022/03/19 01:03:22;;;;;;;4.97;2.23;;;;;;;4.24;45.40;101293.28;5114192;28;20175;-83
2022/03/19 01:05:48;;;;;;;3.93;1.37;;;;;;;4.20;45.27;101288.91;5096142;28;20673;-83
2022/03/19 01:08:13;;;;;;;14.60;2.27;;;;;;;4.27;45.22;101295.03;5114096;28;20254;-83
2022/03/19 01:10:39;;;;;;;4.33;2.23;;;;;;;4.28;45.57;101300.22;5114330;28;20186;-83
2022/03/19 01:13:06;;;;;;;3.00;1.27;;;;;;;4.22;46.02;101291.50;5114026;28;20240;-83
2022/03/19 01:15:32;;;;;;;2.87;2.23;;;;;;;4.14;46.63;101301.00;5096292;28;20275;-83
2022/03/19 01:17:57;;;;;;;3.90;2.13;;;;;;;4.29;46.50;101290.72;5113890;28;20696;-82
2022/03/19 01:20:24;;;;;;;4.03;2.40;;;;;;;4.28;46.48;101289.84;5113927;28;20176;-82
2022/03/19 01:22:51;;;;;;;2.00;1.60;;;;;;;4.27;46.77;101293.28;5114134;28;20168;-82
2022/03/19 01:25:18;;;;;;;5.00;1.53;;;;;;;4.24;46.08;101295.88;5113777;28;20195;-83
2022/03/19 01:27:45;;;;;;;1.67;1.27;;;;;;;4.20;45.92;101291.50;5114016;28;20558;-82
2022/03/19 01:30:13;;;;;;;2.73;2.17;;;;;;;4.19;45.36;101289.75;5095743;28;20190;-82
2022/03/19 01:32:40;;;;;;;3.83;2.07;;;;;;;4.12;45.55;101294.88;5095844;28;20175;-82
2022/03/19 01:35:06;;;;;;;5.70;2.37;;;;;;;4.19;44.90;101286.31;5114009;28;20175;-82
2022/03/19 01:37:31;;;;;;;3.17;1.30;;;;;;;4.17;45.55;101283.69;5113936;28;20187;-82
2022/03/19 01:39:57;;;;;;;5.90;2.27;;;;;;;4.23;45.23;101283.75;5113642;28;20179;-82
2022/03/19 01:42:31;;;;;;;2.50;1.77;;;;;;;4.19;44.77;101288.91;5095668;28;20222;-82
2022/03/19 01:44:58;;;;;;;5.10;1.70;;;;;;;4.24;44.57;101287.22;5113526;28;20638;-82
2022/03/19 01:47:26;;;;;;;5.17;1.77;;;;;;;4.25;45.03;101289.81;5095626;28;20183;-82
2022/03/19 01:49:51;;;;;;;4.70;2.43;;;;;;;4.31;45.01;101292.47;5113549;28;20259;-82
2022/03/19 01:52:18;;;;;;;5.37;2.53;;;;;;;4.37;44.79;101295.97;5114057;28;20637;-82
2022/03/19 01:54:47;;;;;;;4.93;2.87;;;;;;;4.44;44.47;101298.59;5115220;28;20610;-82
2022/03/19 01:57:17;;;;;;;3.70;2.40;;;;;;;4.43;44.27;101301.19;5099869;28;20252;-82
2022/03/19 01:59:44;;;;;;;7.70;3.10;;;;;;;4.33;45.27;101288.13;5117739;28;20175;-82
2022/03/19 02:02:10;;;;;;;9.97;2.83;;;;;;;4.35;44.51;101290.72;5117975;28;20171;-82
2022/03/19 02:04:37;;;;;;;7.30;2.30;;;;;;;4.30;44.54;101295.03;5118062;28;20252;-83
2022/03/19 02:07:05;;;;;;;5.10;2.07;;;;;;;4.20;44.64;101296.69;5117861;28;20609;-83
2022/03/19 02:09:30;;;;;;;4.97;2.37;;;;;;;3.99;44.85;101295.66;5099614;28;20283;-83
2022/03/19 02:11:56;;;;;;;4.83;2.47;;;;;;;3.97;45.28;101293.06;5117582;28;20250;-83
2022/03/19 02:14:21;;;;;;;1.90;1.23;;;;;;;4.04;45.12;101293.97;5117480;28;20530;-83
2022/03/19 02:16:47;;;;;;;7.93;2.13;;;;;;;4.01;45.67;101291.38;5117411;28;20175;-83
2022/03/19 02:19:13;;;;;;;5.37;2.07;;;;;;;4.01;45.38;101297.41;5099417;28;20186;-83
2022/03/19 02:21:47;;;;;;;2.87;1.60;;;;;;;3.95;46.09;101294.78;5117623;28;20175;-83
2022/03/19 02:26:58;;;;;;;5.00;2.90;;;;;;;3.89;46.06;101284.34;5118070;28;20316;-83
2022/03/19 02:29:24;;;;;;;10.17;2.40;;;;;;;4.03;46.25;101295.72;5099118;28;20183;-83
2022/03/19 02:31:53;;;;;;;4.37;2.17;;;;;;;4.06;46.17;101290.53;5117081;28;20190;-83
2022/03/19 02:34:19;;;;;;;4.23;2.23;;;;;;;4.06;46.45;101297.47;5117088;28;20199;-83
2022/03/19 02:36:45;;;;;;;5.50;3.00;;;;;;;4.12;46.15;101293.16;5116991;28;20557;-83
2022/03/19 02:39:22;;;;;;;3.97;2.53;;;;;;;4.16;46.37;101291.47;5116989;28;20644;-83
2022/03/19 02:41:49;;;;;;;4.40;2.23;;;;;;;4.09;45.96;101293.16;5116931;28;20597;-83
2022/03/19 02:44:17;;;;;;;3.37;2.03;;;;;;;4.13;46.89;101287.13;5098772;28;20179;-82
2022/03/19 02:46:45;;;;;;;7.30;2.70;;;;;;;4.10;47.23;101287.09;5098860;28;20248;-83
2022/03/19 02:49:10;;;;;;;6.43;2.37;;;;;;;4.13;47.16;101275.88;5116790;28;20263;-83
2022/03/19 02:51:37;;;;;;;3.37;1.73;;;;;;;4.12;46.69;101280.19;5117023;28;20191;-83
2022/03/19 02:54:04;;;;;;;4.47;2.13;;;;;;;4.13;46.36;101279.34;5116685;28;20176;-83
2022/03/19 02:56:34;;;;;;;4.37;2.40;;;;;;;4.13;46.37;101281.94;5116907;28;20179;-82
2022/03/19 02:59:09;;;;;;;6.23;2.53;;;;;;;4.15;46.21;101287.13;5116931;28;20605;-82
2022/03/19 03:01:35;;;;;;;9.07;3.50;;;;;;;4.12;45.80;101280.19;5116546;28;20655;-82
2022/03/19 03:04:01;;;;;;;8.60;3.60;;;;;;;4.13;46.11;101283.66;5098507;28;20248;-82
2022/03/19 03:06:28;;;;;;;4.20;2.83;;;;;;;4.11;45.85;101293.19;5116353;28;20192;-82
2022/03/19 03:08:54;;;;;;;3.53;1.90;;;;;;;4.04;46.46;101291.34;5098445;28;20641;-82
2022/03/19 03:11:19;;;;;;;6.27;2.40;;;;;;;3.93;46.31;101293.03;5116365;28;20172;-82
2022/03/19 03:13:45;;;;;;;6.43;2.43;;;;;;;3.94;46.91;101289.56;5116211;28;20206;-82
2022/03/19 03:16:10;;;;;;;5.17;2.50;;;;;;;3.93;46.26;101283.50;5116282;28;20232;-82
2022/03/19 03:18:37;;;;;;;1.93;1.40;;;;;;;3.88;47.48;101290.38;5116225;28;20618;-82
2022/03/19 03:21:03;;;;;;;6.43;2.40;;;;;;;3.87;46.65;101288.66;5116397;28;20577;-82
2022/03/19 03:23:28;;;;;;;3.90;2.10;;;;;;;3.77;46.66;101285.94;5116142;28;20262;-82
2022/03/19 03:25:54;;;;;;;3.90;2.70;;;;;;;3.73;46.20;101285.03;5116253;28;20207;-82
2022/03/19 03:28:19;;;;;;;4.00;2.17;;;;;;;3.69;46.07;101278.94;5115983;28;20172;-82
2022/03/19 03:30:45;;;;;;;7.07;2.93;;;;;;;3.63;46.88;101276.31;5097988;28;20198;-82
2022/03/19 03:33:10;;;;;;;4.00;2.77;;;;;;;3.64;46.78;101282.38;5115913;28;20262;-82
2022/03/19 03:35:35;;;;;;;5.47;2.30;;;;;;;3.62;46.92;101282.34;5097894;28;20244;-82
2022/03/19 03:38:01;;;;;;;3.47;2.07;;;;;;;3.58;46.65;101275.41;5115812;28;20528;-82
2022/03/19 03:40:27;;;;;;;7.47;2.43;;;;;;;3.54;46.94;101291.78;5097723;28;20203;-82
2022/03/19 03:42:54;;;;;;;8.77;3.23;;;;;;;3.53;47.19;101289.19;5097711;28;20179;-82
2022/03/19 03:45:20;;;;;;;2.73;1.90;;;;;;;3.45;47.46;101283.03;5115576;28;20636;-82
2022/03/19 03:47:46;;;;;;;2.67;1.60;;;;;;;3.33;47.48;101282.94;5097560;28;20541;-82
2022/03/19 03:50:12;;;;;;;12.57;3.27;;;;;;;3.30;47.66;101277.69;5115493;28;20190;-82
2022/03/19 03:52:38;;;;;;;52.77;20.60;;;;;;;3.28;47.91;101284.56;5115483;28;20722;-82
2022/03/19 03:55:06;;;;;;;30.80;13.90;;;;;;;3.17;48.34;101281.00;5115674;28;20168;-82
2022/03/19 03:57:34;;;;;;;25.77;12.77;;;;;;;3.10;47.90;101283.53;5115330;28;20250;-82
2022/03/19 04:00:01;;;;;;;8.80;4.63;;;;;;;3.06;48.38;101292.13;5115287;28;20199;-82
2022/03/19 04:02:26;;;;;;;7.90;3.63;;;;;;;2.99;48.57;101290.28;5115260;28;20236;-82
2022/03/19 04:04:52;;;;;;;4.20;2.57;;;;;;;2.98;48.67;101291.16;5115145;28;20200;-82
2022/03/19 04:07:17;;;;;;;6.23;3.57;;;;;;;2.95;48.48;101291.13;5098248;28;20190;-82
2022/03/19 04:09:43;;;;;;;4.23;3.03;;;;;;;2.96;49.38;101298.00;5115131;28;20685;-82
2022/03/19 04:12:09;;;;;;;5.57;3.23;;;;;;;2.97;48.91;101289.41;5114964;28;20251;-82
2022/03/19 04:14:35;;;;;;;8.57;2.80;;;;;;;2.93;49.67;101289.34;5115221;28;20578;-82
2022/03/19 04:17:02;;;;;;;8.07;3.30;;;;;;;2.85;49.50;101289.25;5114369;28;20203;-82
2022/03/19 04:19:27;;;;;;;3.23;2.97;;;;;;;2.77;49.71;101277.94;5096893;28;20185;-82
2022/03/19 04:21:52;;;;;;;3.20;2.00;;;;;;;2.77;49.76;101288.28;5115092;28;20175;-82
2022/03/19 04:24:18;;;;;;;3.37;2.03;;;;;;;2.75;49.71;101296.88;5114965;28;20230;-82
2022/03/19 04:26:43;;;;;;;5.43;2.73;;;;;;;2.77;49.44;101290.88;5114779;28;20179;-82
2022/03/19 04:29:09;;;;;;;6.07;3.13;;;;;;;2.88;49.40;101281.50;5096708;28;20190;-82
2022/03/19 04:31:34;;;;;;;8.17;3.23;;;;;;;2.86;49.53;101290.97;5114932;28;20206;-82
2022/03/19 04:34:00;;;;;;;4.20;2.60;;;;;;;2.85;49.39;101283.22;5114613;28;20533;-82
2022/03/19 04:36:32;;;;;;;3.93;2.30;;;;;;;2.77;49.52;101285.69;5115048;28;20164;-82
2022/03/19 04:38:59;;;;;;;3.80;1.73;;;;;;;2.76;49.59;101289.13;5115067;28;20619;-82
2022/03/19 04:41:25;;;;;;;3.20;1.97;;;;;;;2.72;49.07;101291.66;5114413;28;20555;-82
2022/03/19 04:43:51;;;;;;;3.03;2.20;;;;;;;2.71;49.12;101280.44;5114441;28;20167;-82
2022/03/19 04:46:16;;;;;;;3.80;1.93;;;;;;;2.66;49.51;101297.63;5114242;28;21009;-82
2022/03/19 04:48:45;;;;;;;5.70;2.37;;;;;;;2.65;49.72;101293.28;5114573;28;20677;-82
2022/03/19 04:51:13;;;;;;;5.63;2.17;;;;;;;2.58;50.23;101299.25;5096259;28;20172;-82
2022/03/19 04:53:40;;;;;;;6.87;3.30;;;;;;;2.51;49.70;101294.84;5114207;28;20167;-82
2022/03/19 04:56:06;;;;;;;6.23;3.73;;;;;;;2.48;49.81;101289.59;5096255;28;20522;-82
2022/03/19 04:58:35;;;;;;;4.20;2.30;;;;;;;2.53;50.34;101306.06;5114095;28;20558;-82
2022/03/19 05:01:00;;;;;;;3.90;1.90;;;;;;;2.51;49.84;101300.00;5114059;28;20178;-82
2022/03/19 05:03:26;;;;;;;8.67;2.50;;;;;;;2.50;49.74;101306.03;5114021;28;20206;-82
2022/03/19 05:05:52;;;;;;;5.67;2.80;;;;;;;2.61;49.56;101301.88;5113883;28;20295;-82
2022/03/19 05:08:18;;;;;;;6.33;2.20;;;;;;;2.66;49.60;101304.53;5113940;28;20186;-82
2022/03/19 05:13:28;;;;;;;4.20;2.03;;;;;;;2.84;49.10;101297.88;5113743;28;20640;-82
2022/03/19 05:15:54;;;;;;;5.97;2.43;;;;;;;2.89;49.43;101295.34;5113861;28;20624;-82
2022/03/19 05:18:20;;;;;;;6.93;2.23;;;;;;;2.93;49.05;101299.72;5114369;28;20273;-82
2022/03/19 05:20:46;;;;;;;5.20;2.03;;;;;;;3.02;49.45;101311.06;5113798;28;20239;-82
2022/03/19 05:23:12;;;;;;;2.13;1.83;;;;;;;3.07;49.18;101299.03;5095791;28;20247;-82
2022/03/19 05:25:38;;;;;;;5.30;3.40;;;;;;;2.98;49.46;101303.22;5095690;28;20289;-82
2022/03/19 05:28:04;;;;;;;6.33;3.20;;;;;;;3.04;49.35;101308.47;5113575;28;20258;-82
2022/03/19 05:30:31;;;;;;;4.33;2.43;;;;;;;3.14;49.31;101305.16;5112975;28;20199;-82
2022/03/19 05:32:56;;;;;;;5.90;2.53;;;;;;;3.50;49.07;101302.09;5095686;28;20171;-82
2022/03/19 05:35:22;;;;;;;8.70;4.53;;;;;;;3.92;49.73;101301.66;5114137;28;20180;-82
2022/03/19 05:37:48;;;;;;;6.20;3.47;;;;;;;4.31;50.23;101305.44;5095620;28;20175;-82
2022/03/19 05:40:14;;;;;;;9.53;3.70;;;;;;;4.85;48.74;101298.81;5113580;28;20218;-82
2022/03/19 05:42:40;;;;;;;7.77;3.70;;;;;;;5.29;46.54;101301.63;5095703;28;20289;-83
2022/03/19 05:45:06;;;;;;;4.20;2.33;;;;;;;5.84;45.84;101294.81;5113571;28;20645;-83
2022/03/19 05:47:32;;;;;;;9.60;2.90;;;;;;;6.18;44.02;101291.41;5114064;28;20262;-83
2022/03/19 05:49:57;;;;;;;7.20;3.73;;;;;;;6.31;43.15;101290.53;5113538;28;20606;-82
2022/03/19 05:52:23;;;;;;;5.27;2.50;;;;;;;6.38;42.25;101289.63;5113874;28;20501;-82
2022/03/19 05:54:48;;;;;;;8.97;3.93;;;;;;;6.70;42.42;101282.63;5113520;28;20171;-82
2022/03/19 05:57:13;;;;;;;7.07;4.10;;;;;;;6.86;40.99;101285.19;5113825;28;20173;-82
2022/03/19 05:59:39;;;;;;;7.70;3.00;;;;;;;7.02;40.88;101285.13;5113502;28;20197;-83
2022/03/19 06:02:06;;;;;;;3.47;2.73;;;;;;;7.27;39.83;101286.75;5095493;28;20632;-83
2022/03/19 06:04:33;;;;;;;11.33;2.93;;;;;;;7.39;39.69;101281.44;5113391;28;20190;-83
2022/03/19 06:06:59;;;;;;;5.70;2.87;;;;;;;7.53;38.53;101289.19;5113448;28;20206;-84
2022/03/19 06:09:24;;;;;;;7.00;2.70;;;;;;;7.51;38.99;101290.09;5113688;28;20268;-84
2022/03/19 06:11:49;;;;;;;4.23;2.20;;;;;;;7.69;36.06;101279.53;5078491;28;20347;-84
2022/03/19 06:14:15;;;;;;;5.67;2.40;;;;;;;8.03;36.06;101278.41;5095421;28;20278;-84
2022/03/19 06:16:40;;;;;;;7.30;2.50;;;;;;;8.63;36.35;101275.25;5113595;28;20176;-84
2022/03/19 06:19:06;;;;;;;7.43;3.17;;;;;;;9.26;33.40;101275.38;5113301;28;20176;-85
2022/03/19 06:21:31;;;;;;;6.43;1.97;;;;;;;9.49;32.40;101275.91;5113269;28;20182;-85
2022/03/19 06:23:57;;;;;;;12.20;5.70;;;;;;;9.12;33.13;101287.75;5095304;28;20184;-85
2022/03/19 06:26:23;;;;;;;5.37;2.40;;;;;;;9.02;32.34;101287.00;5095198;28;20218;-85
2022/03/19 06:28:49;;;;;;;5.07;2.70;;;;;;;9.23;33.52;101291.97;5095328;28;20212;-85
2022/03/19 06:31:15;;;;;;;7.63;2.53;;;;;;;9.46;32.70;101285.59;5113677;28;20571;-85
2022/03/19 06:33:41;;;;;;;8.03;2.47;;;;;;;9.81;31.97;101284.19;5095489;28;20192;-85
2022/03/19 06:38:51;;;;;;;4.77;2.37;;;;;;;11.14;30.53;101269.56;5113669;28;20177;-87
2022/03/19 06:41:17;;;;;;;5.80;3.17;;;;;;;10.57;30.39;101282.91;5115781;28;20176;-86
2022/03/19 06:43:45;;;;;;;7.50;2.83;;;;;;;10.69;31.59;101281.84;5098865;28;20601;-86
2022/03/19 06:46:11;;;;;;;5.63;2.93;;;;;;;11.27;32.63;101282.38;5098743;28;20664;-86
2022/03/19 06:48:36;;;;;;;5.70;2.57;;;;;;;11.59;29.83;101268.53;5099178;28;20252;-86
2022/03/19 06:51:02;;;;;;;4.00;2.40;;;;;;;11.27;30.11;101281.53;5099072;28;20605;-86
2022/03/19 06:53:27;;;;;;;6.97;2.73;;;;;;;11.61;29.42;101275.50;5116663;28;20172;-86
2022/03/19 06:55:53;;;;;;;4.97;2.60;;;;;;;11.94;29.92;101275.66;5116655;28;20203;-85
2022/03/19 06:58:20;;;;;;;6.77;2.23;;;;;;;12.54;29.46;101271.47;5116588;28;20286;-86
2022/03/19 07:00:46;;;;;;;5.63;2.67;;;;;;;12.68;28.43;101268.47;5099133;28;20647;-87
2022/03/19 07:03:12;;;;;;;3.80;2.57;;;;;;;12.11;27.94;101274.31;5116481;28;20258;-87
2022/03/19 07:05:38;;;;;;;3.83;1.80;;;;;;;10.81;29.55;101281.59;5099226;28;20207;-87
2022/03/19 07:08:07;;;;;;;3.13;2.23;;;;;;;10.85;30.71;101289.38;5116418;28;20172;-87
2022/03/19 07:10:36;;;;;;;4.47;2.40;;;;;;;11.23;29.98;101279.84;5116657;28;20186;-87
2022/03/19 07:13:03;;;;;;;2.33;1.50;;;;;;;11.57;28.76;101281.72;5116168;28;20196;-87
2022/03/19 07:15:29;;;;;;;7.97;3.33;;;;;;;11.58;29.69;101277.34;5116300;28;20206;-86
2022/03/19 07:17:55;;;;;;;3.30;1.67;;;;;;;11.23;28.36;101280.72;5116244;28;20248;-87
2022/03/19 07:20:21;;;;;;;4.73;2.17;;;;;;;10.58;30.16;101282.03;5116422;28;20623;-87
2022/03/19 07:22:53;;;;;;;5.23;2.33;;;;;;;10.84;30.76;101281.53;5116077;28;20183;-87
2022/03/19 07:25:21;;;;;;;4.00;2.27;;;;;;;10.66;31.55;101271.41;5116021;28;20185;-86
2022/03/19 07:27:49;;;;;;;4.53;2.53;;;;;;;10.55;31.95;101278.59;5098001;28;20539;-86
2022/03/19 07:30:15;;;;;;;7.77;2.60;;;;;;;10.74;31.32;101280.00;5115993;28;20188;-86
2022/03/19 07:32:41;;;;;;;4.90;2.40;;;;;;;10.93;32.17;101283.97;5116059;28;20171;-86
2022/03/19 07:35:07;;;;;;;4.50;2.27;;;;;;;10.81;30.82;101278.97;5116146;28;20183;-85
2022/03/19 07:37:33;;;;;;;7.73;2.73;;;;;;;10.72;31.93;101281.75;5115748;28;20178;-86
2022/03/19 07:39:59;;;;;;;5.27;2.27;;;;;;;10.36;30.52;101281.56;5116091;28;20172;-87
2022/03/19 07:42:25;;;;;;;3.97;2.13;;;;;;;9.94;31.05;101274.38;5097712;28;20174;-85
2022/03/19 07:44:51;;;;;;;5.80;2.17;;;;;;;9.63;31.92;101289.69;5115879;28;20208;-84
2022/03/19 07:47:17;;;;;;;3.03;1.70;;;;;;;9.57;32.23;101291.53;5115954;28;20632;-85
2022/03/19 07:49:43;;;;;;;8.27;2.53;;;;;;;9.54;33.20;101288.97;5097630;28;20221;-86
2022/03/19 07:52:09;;;;;;;8.40;2.40;;;;;;;9.71;31.97;101295.69;5097036;28;20200;-85
2022/03/19 07:54:36;;;;;;;3.87;1.83;;;;;;;9.80;30.65;101292.91;5115577;28;20185;-86
2022/03/19 07:57:03;;;;;;;4.13;2.07;;;;;;;9.61;30.17;101290.59;5115740;28;20225;-86
2022/03/19 07:59:29;;;;;;;6.27;2.63;;;;;;;9.60;31.14;101292.34;5115752;28;20274;-85
2022/03/19 08:01:54;;;;;;;3.70;1.97;;;;;;;9.25;32.47;101291.94;5115396;28;20176;-86
2022/03/19 08:04:20;;;;;;;4.20;2.10;;;;;;;9.18;32.52;101293.78;5115636;28;20534;-85
2022/03/19 08:06:46;;;;;;;3.33;2.10;;;;;;;9.61;31.99;101285.38;5097487;28;20209;-85
2022/03/19 08:09:12;;;;;;;3.57;1.63;;;;;;;9.37;29.97;101285.69;5097290;28;20177;-85
2022/03/19 08:11:40;;;;;;;6.27;2.17;;;;;;;8.98;29.91;101281.84;5097420;28;20196;-84
2022/03/19 08:14:06;;;;;;;2.80;1.63;;;;;;;8.51;32.04;101290.22;5115414;28;20604;-86
2022/03/19 08:16:32;;;;;;;8.03;2.77;;;;;;;8.65;30.78;101281.34;5115408;28;20174;-86
2022/03/19 08:18:57;;;;;;;5.10;2.30;;;;;;;8.42;32.15;101287.66;5097934;28;20283;-86
2022/03/19 08:21:23;;;;;;;5.50;1.93;;;;;;;8.52;31.19;101282.34;5115008;28;20176;-85
2022/03/19 08:23:48;;;;;;;2.63;1.50;;;;;;;8.66;30.99;101276.97;5096972;28;20584;-86
2022/03/19 08:26:14;;;;;;;3.67;1.97;;;;;;;8.69;31.51;101282.16;5114858;28;20203;-87
2022/03/19 08:28:39;;;;;;;10.23;2.33;;;;;;;8.61;30.62;101291.84;5097478;28;20288;-85
2022/03/19 08:31:05;;;;;;;2.27;1.70;;;;;;;8.48;32.80;101277.16;5114832;28;20164;-86
2022/03/19 08:33:31;;;;;;;3.70;2.40;;;;;;;8.01;32.89;101283.66;5114749;28;20182;-86
2022/03/19 08:35:56;;;;;;;5.60;2.50;;;;;;;8.33;31.47;101279.94;5114750;28;20238;-85
2022/03/19 08:41:06;;;;;;;3.83;1.67;;;;;;;8.27;31.24;101267.78;5115308;28;20217;-84
2022/03/19 08:43:32;;;;;;;3.40;1.90;;;;;;;8.16;32.57;101271.31;5114857;28;20529;-85
2022/03/19 08:45:58;;;;;;;3.60;1.67;;;;;;;8.34;31.60;101271.19;5096873;28;20204;-84
2022/03/19 08:48:24;;;;;;;3.50;1.80;;;;;;;8.40;32.60;101272.03;5114752;28;20182;-87
2022/03/19 08:50:49;;;;;;;2.90;1.60;;;;;;;8.60;32.68;101269.19;5096485;28;20179;-87
2022/03/19 08:53:16;;;;;;;3.50;1.73;;;;;;;8.62;32.69;101270.06;5096390;28;20184;-86
2022/03/19 08:55:41;;;;;;;5.67;2.13;;;;;;;9.30;31.27;101270.97;5096769;28;20176;-86
2022/03/19 08:58:07;;;;;;;4.37;1.63;;;;;;;9.38;30.76;101256.03;5115141;28;20207;-87
2022/03/19 09:00:34;;;;;;;5.30;2.20;;;;;;;9.50;30.00;101261.09;5114356;28;20175;-85
2022/03/19 09:02:59;;;;;;;2.93;1.43;;;;;;;9.39;30.31;101263.84;5114940;28;20590;-87
2022/03/19 09:05:27;;;;;;;6.10;2.30;;;;;;;9.33;30.59;101263.09;5114156;28;20215;-86
2022/03/19 09:07:52;;;;;;;3.57;1.23;;;;;;;9.23;32.13;101263.19;5114432;28;20195;-86
2022/03/19 09:10:18;;;;;;;3.40;1.87;;;;;;;9.18;31.09;101267.63;5096188;28;20234;-86
2022/03/19 09:12:44;;;;;;;11.00;1.83;;;;;;;9.55;31.34;101264.50;5096117;28;20202;-86
2022/03/19 09:15:11;;;;;;;4.37;2.13;;;;;;;9.26;30.15;101259.66;5096877;28;20171;-87
2022/03/19 09:17:37;;;;;;;4.03;1.63;;;;;;;9.55;30.11;101257.50;5113996;28;20171;-86
2022/03/19 09:20:03;;;;;;;1.93;1.10;;;;;;;9.46;31.03;101262.88;5114220;28;20508;-86
2022/03/19 09:22:30;;;;;;;3.70;1.77;;;;;;;9.57;31.62;101249.63;5095980;28;20179;-86
2022/03/19 09:24:56;;;;;;;6.37;2.33;;;;;;;9.62;30.35;101264.38;5095819;28;20200;-87
2022/03/19 09:27:22;;;;;;;2.37;1.27;;;;;;;9.48;29.73;101253.28;5113858;28;20174;-88
2022/03/19 09:29:48;;;;;;;5.60;2.93;;;;;;;9.40;30.00;101260.34;5114299;28;20171;-89
2022/03/19 09:32:17;;;;;;;3.33;2.10;;;;;;;9.17;29.16;101258.03;5114021;28;20648;-87
2022/03/19 09:34:43;;;;;;;2.87;1.70;;;;;;;8.73;29.92;101259.44;5113750;28;20172;-86
2022/03/19 09:37:09;;;;;;;4.00;1.93;;;;;;;8.50;30.74;101251.88;5113661;28;20636;-86
2022/03/19 09:39:34;;;;;;;3.90;1.73;;;;;;;8.67;30.22;101254.31;5095745;28;20175;-85
2022/03/19 09:42:01;;;;;;;2.93;1.60;;;;;;;9.13;31.27;101253.75;5095721;28;20186;-86
2022/03/19 09:44:26;;;;;;;3.47;1.93;;;;;;;9.34;29.94;101249.09;5095705;28;20181;-86
2022/03/19 09:46:53;;;;;;;3.10;1.40;;;;;;;8.58;30.20;101245.69;5114159;28;20260;-87
2022/03/19 09:49:19;;;;;;;4.37;1.37;;;;;;;8.17;30.45;101247.81;5095645;28;20182;-87
2022/03/19 09:51:54;;;;;;;3.73;1.70;;;;;;;8.34;30.26;101247.69;5095619;28;20211;-86
2022/03/19 09:54:23;;;;;;;5.67;0.97;;;;;;;8.47;30.26;101246.66;5095608;28;20570;-88
2022/03/19 09:56:49;;;;;;;0.87;0.80;;;;;;;7.76;30.14;101258.59;5113454;28;20183;-87
2022/03/19 09:59:15;;;;;;;4.70;2.23;;;;;;;8.12;30.36;101254.84;5095469;28;20252;-86
2022/03/19 10:01:41;;;;;;;3.10;1.47;;;;;;;8.38;30.15;101249.41;5113501;28;20176;-86
2022/03/19 10:04:07;;;;;;;5.00;2.03;;;;;;;8.00;29.33;101252.31;5113462;28;20673;-86
2022/03/19 10:09:20;;;;;;;3.13;1.50;;;;;;;7.70;29.65;101248.22;5113952;28;20263;-87
2022/03/19 10:11:51;;;;;;;5.37;1.70;;;;;;;7.69;29.82;101251.69;5113434;28;20274;-88
2022/03/19 10:14:22;;;;;;;2.07;1.37;;;;;;;7.89;30.28;101247.19;5113898;28;20163;-86
2022/03/19 10:16:52;;;;;;;4.73;1.73;;;;;;;8.09;30.05;101240.94;5116728;28;20168;-86
2022/03/19 10:19:17;;;;;;;2.07;1.23;;;;;;;8.37;28.73;101234.59;5117663;28;20260;-85
2022/03/19 10:21:44;;;;;;;4.97;1.93;;;;;;;8.36;29.40;101235.47;5117387;28;20259;-87
2022/03/19 10:24:20;;;;;;;2.03;1.30;;;;;;;7.64;29.84;101242.16;5117584;28;20205;-86
2022/03/19 10:26:48;;;;;;;3.53;1.67;;;;;;;7.83;31.38;101231.59;5117429;28;20199;-85
2022/03/19 10:29:14;;;;;;;3.20;1.53;;;;;;;7.80;31.14;101235.94;5117193;28;20175;-86
2022/03/19 10:31:44;;;;;;;2.93;1.73;;;;;;;8.00;31.01;101220.97;5117485;28;20621;-86
2022/03/19 10:34:10;;;;;;;2.03;1.43;;;;;;;7.96;30.78;101214.94;5117088;28;20201;-87
2022/03/19 10:36:40;;;;;;;6.73;1.40;;;;;;;8.10;31.41;101219.16;5117055;28;20532;-87
2022/03/19 10:39:19;;;;;;;6.07;2.00;;;;;;;7.86;31.43;101223.69;5117067;28;20164;-86
2022/03/19 10:41:46;;;;;;;3.13;1.73;;;;;;;7.24;29.84;101228.50;5099036;28;20656;-87
2022/03/19 10:44:16;;;;;;;6.37;2.63;;;;;;;7.57;30.50;101223.09;5116886;28;20213;-86
2022/03/19 10:46:47;;;;;;;5.30;2.40;;;;;;;7.73;31.79;101218.63;5116822;28;20251;-86
2022/03/19 10:49:13;;;;;;;4.27;1.30;;;;;;;8.15;29.60;101207.75;5117194;28;20159;-86
2022/03/19 10:51:40;;;;;;;2.03;1.33;;;;;;;8.29;30.00;101198.09;5116842;28;20686;-86
2022/03/19 10:54:06;;;;;;;3.77;2.03;;;;;;;8.43;29.89;101203.16;5098824;28;20274;-86
2022/03/19 10:56:32;;;;;;;3.73;1.10;;;;;;;8.38;30.39;101197.13;5098723;28;20266;-86
2022/03/19 10:58:57;;;;;;;5.20;2.43;;;;;;;8.08;29.13;101200.88;5098641;28;20186;-86
2022/03/19 11:01:23;;;;;;;3.63;2.10;;;;;;;7.88;29.74;101198.47;5116614;28;20222;-87
2022/03/19 11:03:50;;;;;;;3.70;1.70;;;;;;;7.89;30.14;101194.09;5116850;28;20629;-86
2022/03/19 11:06:19;;;;;;;1.60;1.20;;;;;;;7.90;31.18;101188.88;5098427;28;20234;-86
2022/03/19 11:08:47;;;;;;;2.43;1.40;;;;;;;8.14;28.96;101181.66;5098507;28;20271;-86
2022/03/19 11:11:29;;;;;;;2.30;1.10;;;;;;;8.34;29.29;101182.34;5098700;28;20183;-86
2022/03/19 11:13:57;;;;;;;2.80;1.57;;;;;;;8.68;28.54;101177.59;5098493;28;20621;-87
2022/03/19 11:16:25;;;;;;;3.97;2.03;;;;;;;8.58;29.97;101176.84;5116305;28;20199;-85
2022/03/19 11:18:53;;;;;;;3.03;1.50;;;;;;;9.05;29.24;101171.00;5116553;28;20172;-86
2022/03/19 11:21:19;;;;;;;3.00;1.40;;;;;;;9.31;29.30;101166.25;5098269;28;20339;-85
2022/03/19 11:23:56;;;;;;;3.37;1.67;;;;;;;8.89;28.91;101162.50;5098502;28;20685;-86
2022/03/19 11:26:26;;;;;;;2.67;1.30;;;;;;;8.92;30.31;101162.47;5115607;28;20550;-85
2022/03/19 11:28:52;;;;;;;2.70;1.47;;;;;;;8.94;28.77;101158.06;5116219;28;20245;-85
2022/03/19 11:31:25;;;;;;;2.00;1.13;;;;;;;9.08;28.26;101153.53;5116323;28;20695;-85
2022/03/19 11:33:51;;;;;;;3.13;1.17;;;;;;;8.98;28.78;101149.31;5098886;28;20176;-87
2022/03/19 11:36:16;;;;;;;1.70;0.90;;;;;;;9.30;28.20;101129.66;5115940;28;20543;-86
2022/03/19 11:38:54;;;;;;;2.73;1.20;;;;;;;9.63;28.26;101131.72;5116154;28;20196;-87
2022/03/19 11:41:23;;;;;;;2.57;1.63;;;;;;;9.42;27.62;101138.16;5115878;28;20200;-87